Scroll down
FLIGHT INFORMATION
Southern Air

SOO9775

At Arrival Gate

OLBA
 OBBI
DATE: 2021-02-19
GATE: 1
GATE DEPARTURE: 06:03
TAKEOFF: 06:10
DATE: 2021-02-19
GATE:  -
LANDING: 08:47
GATE ARRIVAL: 08:50
FLIGHT DATA
Crew: 
Speed: 
495 kts
Altitude: 
41,026 ft
Stage Length: 
906.7 nm
Block Time: 
2.8 hrs
Flight Time: 
2.6 hrs
Fuel Used: 
31,984 lb
Cleared Route: OLBA ELIKA VELOX LEDRA BIRES STEPA PASOS GENIV SERMA DATOK TAKSU KARIK ULINA ELETA TAMIM PETRA DEESA TAMRO NOTLI LOXOM MOGON EMARO DEBOL MAANI GESOR NADEN DASVA OTERA NAGTO RABKA SIBGA LADNA OBBI
TRACK DATA
50,000 ft 1,000 kts
AIRCRAFT INFO AND CUMULATIVE STATS
Aircraft Type: 
B77LF
Registration: 
SELCAL: 
PSAJ
MSN/LN: 
37987 / 852
Operator: 
Total Flights: 
3
Total Block Time: 
14.2 hrs
Total Flight Time: 
13.5 hrs
Total Fuel Used: 
220,929 lb
DATALINK LOG | Newest first | Current as of: 2023-02-07 22:29:40
LABEL SEQUENCE CONTENT Dn/Up
QD042308:50 14.9▼ Dn
QC012108:47▼ Dn
2U2137OBBI 191400Z 35014KT CAVOK 18/08 Q1020 NOSIG▲ Up
2S2137OBBI▼ Dn
QB120806:10▼ Dn
QA050206:03 46.9▼ Dn
A35603CLEARED TO OBBI VIA ELIKA N159 VELOX N71 STEPA L550 TAKSU L550 KARIK B411 ULINA UB411 DEESA TAMRO N318 LADNA LADNA1. SQUAWK 7435.▲ Up
2U5601OLBA 191200Z 06004KT 020V090 7000 TSRA FEW020CB BKN026 11/10 Q1022 RERA NOSIG▲ Up
2U5601OEDF 191200Z 35016KT CAVOK 21/03 Q1019 NOSIG▲ Up
2U5600OBBI 191230Z 35017KT 310V010 CAVOK 19/08 Q1020 NOSIG▲ Up
2S5600OLBA OBBI OEDF▼ Dn
B35553OLBA OBBI SOO9775 N775SA ▼ Dn
Q05351[LINK ACK]▲ Up
Q05351[LINK TEST]▼ Dn


AIRCRAFT HISTORY
FLIGHT DATE FLIGHT NO. ORIGIN DESTINATION CLEARED ROUTE BLOCK TIME FLIGHT TIME FUEL USED PILOT
2022-06-23SOO934OBBI ZGSZ OBBI BHR TULUB DENVO PATOM EMISA KAPAX ORSIS ENANO TOSNA UMEVU KAPUM GIDOB ORBOL LORID VEKOV OBREV LAGTA RUKOR NOLSU SUTVO LALDO GIDIL IMLOT KATUS PEDEX KINOX EGPIC EGRON BIVIN LAKIV DALDA TELEM SASRO DAMAK ARADO GOMTI PRA EKIGA BPL GOGVE GOLOX ASOPO BEGUM IBUDA ARIVO SEBMA JJS CEA SUMAG DAKID CTG CTG25 CHILA 54LSO LSO LINSO GMA MAKUL GULOT SGM LXI ADBAG MEPAN BSE DUDIT LBN ATLAT BIPOP AGRAV AVPAM GYA POU ZGSZ7.8 hrs7.6 hrs133,988 lbAllan Burek
2021-02-19SOO9775OLBA OBBI OLBA ELIKA VELOX LEDRA BIRES STEPA PASOS GENIV SERMA DATOK TAKSU KARIK ULINA ELETA TAMIM PETRA DEESA TAMRO NOTLI LOXOM MOGON EMARO DEBOL MAANI GESOR NADEN DASVA OTERA NAGTO RABKA SIBGA LADNA OBBI2.8 hrs2.6 hrs31,984 lbAllan Burek
2020-12-13SOO5632EDDP OLBA EDDP DRN RIKLU OMELO GOLOP KOPIT ABRAX ODNEM ERGOM TIMUR XANEX GASRU ADORU ATVEP ULMAR EKI TUMER RESLI UNEPI LEMDA VAPEK KETEK UMDOT VESAR BAPAX ALSUS BALMA OLBA3.6 hrs3.3 hrs54,957 lbTiago Simoes